sensor_id;sensor_type;location;lat;lon;timestamp;P1;durP1;ratioP1;P2;durP2;ratioP2
15677;SDS011;7939;50.814;6.368;2023-12-20T00:02:10;6.78;;;5.05;;
15677;SDS011;7939;50.814;6.368;2023-12-20T00:04:37;4.90;;;4.18;;
15677;SDS011;7939;50.814;6.368;2023-12-20T00:07:04;5.97;;;4.72;;
15677;SDS011;7939;50.814;6.368;2023-12-20T00:09:30;7.10;;;5.30;;
15677;SDS011;7939;50.814;6.368;2023-12-20T00:11:58;6.05;;;4.82;;
15677;SDS011;7939;50.814;6.368;2023-12-20T00:14:25;10.52;;;6.40;;
15677;SDS011;7939;50.814;6.368;2023-12-20T00:16:52;10.50;;;6.90;;
15677;SDS011;7939;50.814;6.368;2023-12-20T00:19:19;8.27;;;6.78;;
15677;SDS011;7939;50.814;6.368;2023-12-20T00:21:45;9.60;;;7.15;;
15677;SDS011;7939;50.814;6.368;2023-12-20T00:24:12;11.10;;;7.30;;
15677;SDS011;7939;50.814;6.368;2023-12-20T00:26:39;10.38;;;8.18;;
15677;SDS011;7939;50.814;6.368;2023-12-20T00:29:07;11.20;;;7.53;;
15677;SDS011;7939;50.814;6.368;2023-12-20T00:31:33;10.57;;;7.60;;
15677;SDS011;7939;50.814;6.368;2023-12-20T00:34:00;9.32;;;6.93;;
15677;SDS011;7939;50.814;6.368;2023-12-20T00:36:27;11.15;;;8.20;;
15677;SDS011;7939;50.814;6.368;2023-12-20T00:38:53;11.55;;;8.32;;
15677;SDS011;7939;50.814;6.368;2023-12-20T00:41:20;11.68;;;8.23;;
15677;SDS011;7939;50.814;6.368;2023-12-20T00:43:47;12.30;;;7.47;;
15677;SDS011;7939;50.814;6.368;2023-12-20T00:46:15;12.88;;;9.07;;
15677;SDS011;7939;50.814;6.368;2023-12-20T00:48:42;13.30;;;9.55;;
15677;SDS011;7939;50.814;6.368;2023-12-20T00:51:10;14.45;;;10.13;;
15677;SDS011;7939;50.814;6.368;2023-12-20T00:53:37;13.90;;;10.40;;
15677;SDS011;7939;50.814;6.368;2023-12-20T00:56:04;13.05;;;9.68;;
15677;SDS011;7939;50.814;6.368;2023-12-20T00:58:31;17.83;;;11.18;;
15677;SDS011;7939;50.814;6.368;2023-12-20T01:00:58;14.38;;;9.93;;
15677;SDS011;7939;50.814;6.368;2023-12-20T01:03:26;16.92;;;10.95;;
15677;SDS011;7939;50.814;6.368;2023-12-20T01:05:53;14.68;;;9.18;;
15677;SDS011;7939;50.814;6.368;2023-12-20T01:08:19;11.93;;;8.38;;
15677;SDS011;7939;50.814;6.368;2023-12-20T01:10:46;13.07;;;8.32;;
15677;SDS011;7939;50.814;6.368;2023-12-20T01:13:13;13.75;;;9.60;;
15677;SDS011;7939;50.814;6.368;2023-12-20T01:15:39;16.60;;;9.98;;
15677;SDS011;7939;50.814;6.368;2023-12-20T01:18:06;15.07;;;9.57;;
15677;SDS011;7939;50.814;6.368;2023-12-20T01:20:35;16.77;;;9.45;;
15677;SDS011;7939;50.814;6.368;2023-12-20T01:23:01;9.90;;;5.72;;
15677;SDS011;7939;50.814;6.368;2023-12-20T01:25:28;9.32;;;4.47;;
15677;SDS011;7939;50.814;6.368;2023-12-20T01:27:55;9.13;;;3.63;;
15677;SDS011;7939;50.814;6.368;2023-12-20T01:30:21;8.85;;;2.63;;
15677;SDS011;7939;50.814;6.368;2023-12-20T01:32:49;8.30;;;3.40;;
15677;SDS011;7939;50.814;6.368;2023-12-20T01:35:16;9.65;;;3.38;;
15677;SDS011;7939;50.814;6.368;2023-12-20T01:37:44;6.30;;;2.90;;
15677;SDS011;7939;50.814;6.368;2023-12-20T01:40:10;7.43;;;2.53;;
15677;SDS011;7939;50.814;6.368;2023-12-20T01:42:37;7.03;;;2.17;;
15677;SDS011;7939;50.814;6.368;2023-12-20T01:45:04;4.00;;;2.03;;
15677;SDS011;7939;50.814;6.368;2023-12-20T01:47:31;5.93;;;2.25;;
15677;SDS011;7939;50.814;6.368;2023-12-20T01:49:58;8.77;;;2.20;;
15677;SDS011;7939;50.814;6.368;2023-12-20T01:52:25;5.75;;;2.55;;
15677;SDS011;7939;50.814;6.368;2023-12-20T01:54:54;5.97;;;1.88;;
15677;SDS011;7939;50.814;6.368;2023-12-20T01:57:27;9.20;;;2.47;;
15677;SDS011;7939;50.814;6.368;2023-12-20T01:59:55;5.25;;;2.10;;
15677;SDS011;7939;50.814;6.368;2023-12-20T02:02:22;5.43;;;2.03;;
15677;SDS011;7939;50.814;6.368;2023-12-20T02:04:48;4.05;;;2.00;;
15677;SDS011;7939;50.814;6.368;2023-12-20T02:07:16;5.72;;;2.80;;
15677;SDS011;7939;50.814;6.368;2023-12-20T02:09:44;8.23;;;3.33;;
15677;SDS011;7939;50.814;6.368;2023-12-20T02:12:12;5.10;;;2.00;;
15677;SDS011;7939;50.814;6.368;2023-12-20T02:14:39;6.93;;;2.50;;
15677;SDS011;7939;50.814;6.368;2023-12-20T02:17:06;5.72;;;2.70;;
15677;SDS011;7939;50.814;6.368;2023-12-20T02:19:32;5.97;;;2.63;;
15677;SDS011;7939;50.814;6.368;2023-12-20T02:22:07;6.70;;;3.17;;
15677;SDS011;7939;50.814;6.368;2023-12-20T02:24:34;7.22;;;3.03;;
15677;SDS011;7939;50.814;6.368;2023-12-20T02:27:01;7.85;;;3.42;;
15677;SDS011;7939;50.814;6.368;2023-12-20T02:29:28;4.75;;;3.08;;
15677;SDS011;7939;50.814;6.368;2023-12-20T02:31:55;7.80;;;3.00;;
15677;SDS011;7939;50.814;6.368;2023-12-20T02:34:22;7.70;;;3.38;;
15677;SDS011;7939;50.814;6.368;2023-12-20T02:36:48;9.65;;;3.33;;
15677;SDS011;7939;50.814;6.368;2023-12-20T02:39:16;9.45;;;3.00;;
15677;SDS011;7939;50.814;6.368;2023-12-20T02:41:44;8.25;;;3.22;;
15677;SDS011;7939;50.814;6.368;2023-12-20T02:44:10;7.88;;;3.10;;
15677;SDS011;7939;50.814;6.368;2023-12-20T02:46:37;5.65;;;3.38;;
15677;SDS011;7939;50.814;6.368;2023-12-20T02:49:04;9.07;;;3.47;;
15677;SDS011;7939;50.814;6.368;2023-12-20T02:51:30;7.93;;;2.78;;
15677;SDS011;7939;50.814;6.368;2023-12-20T02:53:57;10.52;;;2.83;;
15677;SDS011;7939;50.814;6.368;2023-12-20T02:56:25;7.47;;;2.88;;
15677;SDS011;7939;50.814;6.368;2023-12-20T02:58:52;9.52;;;2.97;;
15677;SDS011;7939;50.814;6.368;2023-12-20T03:01:18;6.45;;;3.40;;
15677;SDS011;7939;50.814;6.368;2023-12-20T03:03:45;6.47;;;3.00;;
15677;SDS011;7939;50.814;6.368;2023-12-20T03:06:15;7.93;;;3.20;;
15677;SDS011;7939;50.814;6.368;2023-12-20T03:08:43;13.32;;;4.05;;
15677;SDS011;7939;50.814;6.368;2023-12-20T03:11:10;8.35;;;3.10;;
15677;SDS011;7939;50.814;6.368;2023-12-20T03:13:38;9.25;;;3.72;;
15677;SDS011;7939;50.814;6.368;2023-12-20T03:16:07;5.00;;;3.30;;
15677;SDS011;7939;50.814;6.368;2023-12-20T03:18:35;9.32;;;3.50;;
15677;SDS011;7939;50.814;6.368;2023-12-20T03:21:02;9.45;;;3.80;;
15677;SDS011;7939;50.814;6.368;2023-12-20T03:23:28;8.27;;;3.65;;
15677;SDS011;7939;50.814;6.368;2023-12-20T03:25:55;7.80;;;3.70;;
15677;SDS011;7939;50.814;6.368;2023-12-20T03:28:22;6.47;;;3.60;;
15677;SDS011;7939;50.814;6.368;2023-12-20T03:30:50;10.52;;;4.82;;
15677;SDS011;7939;50.814;6.368;2023-12-20T03:33:17;7.13;;;3.88;;
15677;SDS011;7939;50.814;6.368;2023-12-20T03:35:43;10.43;;;4.40;;
15677;SDS011;7939;50.814;6.368;2023-12-20T03:38:10;9.70;;;3.88;;
15677;SDS011;7939;50.814;6.368;2023-12-20T03:40:37;9.00;;;4.30;;
15677;SDS011;7939;50.814;6.368;2023-12-20T03:43:04;10.85;;;4.55;;
15677;SDS011;7939;50.814;6.368;2023-12-20T03:45:31;7.80;;;3.70;;
15677;SDS011;7939;50.814;6.368;2023-12-20T03:47:59;10.00;;;4.13;;
15677;SDS011;7939;50.814;6.368;2023-12-20T03:50:26;11.65;;;4.18;;
15677;SDS011;7939;50.814;6.368;2023-12-20T03:52:53;8.73;;;4.53;;
15677;SDS011;7939;50.814;6.368;2023-12-20T03:55:19;9.57;;;4.70;;
15677;SDS011;7939;50.814;6.368;2023-12-20T03:57:46;11.38;;;4.20;;
15677;SDS011;7939;50.814;6.368;2023-12-20T04:00:13;8.82;;;3.90;;
15677;SDS011;7939;50.814;6.368;2023-12-20T04:02:41;12.30;;;4.85;;
15677;SDS011;7939;50.814;6.368;2023-12-20T04:05:10;9.35;;;4.50;;
15677;SDS011;7939;50.814;6.368;2023-12-20T04:07:36;9.90;;;5.15;;
15677;SDS011;7939;50.814;6.368;2023-12-20T04:10:03;7.25;;;3.97;;
15677;SDS011;7939;50.814;6.368;2023-12-20T04:12:31;9.35;;;4.35;;
15677;SDS011;7939;50.814;6.368;2023-12-20T04:14:58;10.32;;;4.53;;
15677;SDS011;7939;50.814;6.368;2023-12-20T04:17:24;6.78;;;4.30;;
15677;SDS011;7939;50.814;6.368;2023-12-20T04:19:51;7.85;;;4.13;;
15677;SDS011;7939;50.814;6.368;2023-12-20T04:22:19;8.20;;;4.22;;
15677;SDS011;7939;50.814;6.368;2023-12-20T04:24:46;13.93;;;4.35;;
15677;SDS011;7939;50.814;6.368;2023-12-20T04:27:13;15.25;;;5.28;;
15677;SDS011;7939;50.814;6.368;2023-12-20T04:29:39;10.18;;;5.07;;
15677;SDS011;7939;50.814;6.368;2023-12-20T04:32:06;6.45;;;4.25;;
15677;SDS011;7939;50.814;6.368;2023-12-20T04:34:33;7.80;;;4.03;;
15677;SDS011;7939;50.814;6.368;2023-12-20T04:36:59;9.25;;;4.85;;
15677;SDS011;7939;50.814;6.368;2023-12-20T04:39:28;9.88;;;4.20;;
15677;SDS011;7939;50.814;6.368;2023-12-20T04:41:55;9.00;;;4.07;;
15677;SDS011;7939;50.814;6.368;2023-12-20T04:44:22;7.03;;;4.13;;
15677;SDS011;7939;50.814;6.368;2023-12-20T04:46:49;8.23;;;3.83;;
15677;SDS011;7939;50.814;6.368;2023-12-20T04:49:15;7.80;;;4.10;;
15677;SDS011;7939;50.814;6.368;2023-12-20T04:51:42;8.60;;;3.70;;
15677;SDS011;7939;50.814;6.368;2023-12-20T04:54:09;8.65;;;4.15;;
15677;SDS011;7939;50.814;6.368;2023-12-20T04:56:37;10.13;;;4.13;;
15677;SDS011;7939;50.814;6.368;2023-12-20T04:59:03;7.10;;;3.50;;
15677;SDS011;7939;50.814;6.368;2023-12-20T05:01:31;11.07;;;4.53;;
15677;SDS011;7939;50.814;6.368;2023-12-20T05:03:57;11.98;;;4.03;;
15677;SDS011;7939;50.814;6.368;2023-12-20T05:06:24;10.40;;;4.03;;
15677;SDS011;7939;50.814;6.368;2023-12-20T05:08:51;10.02;;;4.75;;
15677;SDS011;7939;50.814;6.368;2023-12-20T05:11:17;9.88;;;3.92;;
15677;SDS011;7939;50.814;6.368;2023-12-20T05:13:45;6.03;;;3.65;;
15677;SDS011;7939;50.814;6.368;2023-12-20T05:16:12;16.60;;;3.97;;
15677;SDS011;7939;50.814;6.368;2023-12-20T05:18:39;11.73;;;3.80;;
15677;SDS011;7939;50.814;6.368;2023-12-20T05:21:05;7.90;;;3.47;;
15677;SDS011;7939;50.814;6.368;2023-12-20T05:23:33;10.20;;;3.90;;
15677;SDS011;7939;50.814;6.368;2023-12-20T05:26:00;9.02;;;3.83;;
15677;SDS011;7939;50.814;6.368;2023-12-20T05:28:26;10.57;;;4.05;;
15677;SDS011;7939;50.814;6.368;2023-12-20T05:30:54;11.88;;;4.30;;
15677;SDS011;7939;50.814;6.368;2023-12-20T05:33:21;14.55;;;4.82;;
15677;SDS011;7939;50.814;6.368;2023-12-20T05:35:48;9.50;;;4.22;;
15677;SDS011;7939;50.814;6.368;2023-12-20T05:38:15;10.75;;;4.10;;
15677;SDS011;7939;50.814;6.368;2023-12-20T05:40:42;11.20;;;3.75;;
15677;SDS011;7939;50.814;6.368;2023-12-20T05:43:08;9.98;;;4.28;;
15677;SDS011;7939;50.814;6.368;2023-12-20T05:45:35;12.40;;;4.72;;
15677;SDS011;7939;50.814;6.368;2023-12-20T05:48:03;14.10;;;4.05;;
15677;SDS011;7939;50.814;6.368;2023-12-20T05:50:30;8.90;;;4.18;;
15677;SDS011;7939;50.814;6.368;2023-12-20T05:52:57;11.55;;;4.40;;
15677;SDS011;7939;50.814;6.368;2023-12-20T05:55:24;14.13;;;3.90;;
15677;SDS011;7939;50.814;6.368;2023-12-20T05:57:50;11.52;;;4.20;;
15677;SDS011;7939;50.814;6.368;2023-12-20T06:00:17;12.93;;;4.35;;
15677;SDS011;7939;50.814;6.368;2023-12-20T06:02:44;12.75;;;4.75;;
15677;SDS011;7939;50.814;6.368;2023-12-20T06:05:12;9.20;;;4.07;;
15677;SDS011;7939;50.814;6.368;2023-12-20T06:07:39;7.50;;;3.65;;
15677;SDS011;7939;50.814;6.368;2023-12-20T06:10:06;11.15;;;4.00;;
15677;SDS011;7939;50.814;6.368;2023-12-20T06:12:33;7.32;;;4.07;;
15677;SDS011;7939;50.814;6.368;2023-12-20T06:15:01;9.43;;;4.20;;
15677;SDS011;7939;50.814;6.368;2023-12-20T06:17:28;9.25;;;4.25;;
15677;SDS011;7939;50.814;6.368;2023-12-20T06:19:56;8.63;;;3.97;;
15677;SDS011;7939;50.814;6.368;2023-12-20T06:22:24;13.20;;;4.03;;
15677;SDS011;7939;50.814;6.368;2023-12-20T06:24:51;10.00;;;5.07;;
15677;SDS011;7939;50.814;6.368;2023-12-20T06:27:18;9.90;;;4.30;;
15677;SDS011;7939;50.814;6.368;2023-12-20T06:29:44;10.85;;;4.93;;
15677;SDS011;7939;50.814;6.368;2023-12-20T06:32:11;9.07;;;4.55;;
15677;SDS011;7939;50.814;6.368;2023-12-20T06:34:38;10.93;;;4.25;;
15677;SDS011;7939;50.814;6.368;2023-12-20T06:37:04;7.22;;;4.00;;
15677;SDS011;7939;50.814;6.368;2023-12-20T06:39:32;11.98;;;4.35;;
15677;SDS011;7939;50.814;6.368;2023-12-20T06:42:00;12.40;;;4.35;;
15677;SDS011;7939;50.814;6.368;2023-12-20T06:44:26;10.88;;;4.53;;
15677;SDS011;7939;50.814;6.368;2023-12-20T06:46:53;9.35;;;3.60;;
15677;SDS011;7939;50.814;6.368;2023-12-20T06:49:20;12.77;;;4.35;;
15677;SDS011;7939;50.814;6.368;2023-12-20T06:51:46;11.65;;;4.43;;
15677;SDS011;7939;50.814;6.368;2023-12-20T06:54:13;10.45;;;4.22;;
15677;SDS011;7939;50.814;6.368;2023-12-20T06:56:41;13.65;;;4.82;;
15677;SDS011;7939;50.814;6.368;2023-12-20T06:59:08;10.27;;;4.43;;
15677;SDS011;7939;50.814;6.368;2023-12-20T07:01:37;12.35;;;5.13;;
15677;SDS011;7939;50.814;6.368;2023-12-20T07:04:04;11.25;;;4.90;;
15677;SDS011;7939;50.814;6.368;2023-12-20T07:06:31;12.75;;;4.60;;
15677;SDS011;7939;50.814;6.368;2023-12-20T07:08:57;8.43;;;3.53;;
15677;SDS011;7939;50.814;6.368;2023-12-20T07:11:24;7.22;;;3.53;;
15677;SDS011;7939;50.814;6.368;2023-12-20T07:13:52;10.27;;;3.80;;
15677;SDS011;7939;50.814;6.368;2023-12-20T07:16:19;9.98;;;4.25;;
15677;SDS011;7939;50.814;6.368;2023-12-20T07:18:46;9.23;;;3.55;;
15677;SDS011;7939;50.814;6.368;2023-12-20T07:21:13;10.88;;;3.72;;
15677;SDS011;7939;50.814;6.368;2023-12-20T07:23:40;9.63;;;4.43;;
15677;SDS011;7939;50.814;6.368;2023-12-20T07:26:07;11.30;;;4.55;;
15677;SDS011;7939;50.814;6.368;2023-12-20T07:28:34;10.15;;;4.20;;
15677;SDS011;7939;50.814;6.368;2023-12-20T07:31:02;14.45;;;4.70;;
15677;SDS011;7939;50.814;6.368;2023-12-20T07:33:29;9.80;;;4.28;;
15677;SDS011;7939;50.814;6.368;2023-12-20T07:35:55;8.38;;;4.70;;
15677;SDS011;7939;50.814;6.368;2023-12-20T07:38:22;13.80;;;4.72;;
15677;SDS011;7939;50.814;6.368;2023-12-20T07:40:50;10.77;;;4.57;;
15677;SDS011;7939;50.814;6.368;2023-12-20T07:43:17;7.55;;;4.50;;
15677;SDS011;7939;50.814;6.368;2023-12-20T07:45:43;14.27;;;4.68;;
15677;SDS011;7939;50.814;6.368;2023-12-20T07:48:11;10.23;;;4.68;;
15677;SDS011;7939;50.814;6.368;2023-12-20T07:50:38;8.30;;;4.07;;
15677;SDS011;7939;50.814;6.368;2023-12-20T07:53:05;12.57;;;4.97;;
15677;SDS011;7939;50.814;6.368;2023-12-20T07:55:32;12.40;;;5.43;;
15677;SDS011;7939;50.814;6.368;2023-12-20T07:57:59;11.68;;;5.18;;
15677;SDS011;7939;50.814;6.368;2023-12-20T08:00:26;8.98;;;4.47;;
15677;SDS011;7939;50.814;6.368;2023-12-20T08:02:53;13.55;;;5.72;;
15677;SDS011;7939;50.814;6.368;2023-12-20T08:05:22;10.63;;;5.03;;
15677;SDS011;7939;50.814;6.368;2023-12-20T08:07:48;9.93;;;4.30;;
15677;SDS011;7939;50.814;6.368;2023-12-20T08:10:15;13.75;;;4.75;;
15677;SDS011;7939;50.814;6.368;2023-12-20T08:12:43;13.27;;;4.60;;
15677;SDS011;7939;50.814;6.368;2023-12-20T08:15:10;9.05;;;4.70;;
15677;SDS011;7939;50.814;6.368;2023-12-20T08:17:37;12.63;;;4.68;;
15677;SDS011;7939;50.814;6.368;2023-12-20T08:20:04;11.13;;;4.20;;
15677;SDS011;7939;50.814;6.368;2023-12-20T08:22:33;10.18;;;4.05;;
15677;SDS011;7939;50.814;6.368;2023-12-20T08:24:59;10.52;;;5.32;;
15677;SDS011;7939;50.814;6.368;2023-12-20T08:27:26;10.90;;;3.95;;
15677;SDS011;7939;50.814;6.368;2023-12-20T08:29:53;10.73;;;6.28;;
15677;SDS011;7939;50.814;6.368;2023-12-20T08:32:19;11.90;;;4.15;;
15677;SDS011;7939;50.814;6.368;2023-12-20T08:34:46;8.52;;;4.07;;
15677;SDS011;7939;50.814;6.368;2023-12-20T08:37:13;10.63;;;4.60;;
15677;SDS011;7939;50.814;6.368;2023-12-20T08:39:41;9.98;;;4.40;;
15677;SDS011;7939;50.814;6.368;2023-12-20T08:42:09;8.60;;;3.42;;
15677;SDS011;7939;50.814;6.368;2023-12-20T08:44:36;7.32;;;3.92;;
15677;SDS011;7939;50.814;6.368;2023-12-20T08:47:03;11.43;;;4.22;;
15677;SDS011;7939;50.814;6.368;2023-12-20T08:49:29;11.98;;;4.63;;
15677;SDS011;7939;50.814;6.368;2023-12-20T08:51:56;10.43;;;4.43;;
15677;SDS011;7939;50.814;6.368;2023-12-20T08:54:23;10.27;;;5.07;;
15677;SDS011;7939;50.814;6.368;2023-12-20T08:56:51;13.38;;;5.95;;
15677;SDS011;7939;50.814;6.368;2023-12-20T08:59:17;12.93;;;4.88;;
15677;SDS011;7939;50.814;6.368;2023-12-20T09:01:44;8.65;;;4.20;;
15677;SDS011;7939;50.814;6.368;2023-12-20T09:04:13;9.95;;;4.30;;
15677;SDS011;7939;50.814;6.368;2023-12-20T09:06:39;13.02;;;4.55;;
15677;SDS011;7939;50.814;6.368;2023-12-20T09:09:06;10.95;;;4.00;;
15677;SDS011;7939;50.814;6.368;2023-12-20T09:11:35;10.68;;;3.95;;
15677;SDS011;7939;50.814;6.368;2023-12-20T09:14:03;11.48;;;4.68;;
15677;SDS011;7939;50.814;6.368;2023-12-20T09:16:30;9.30;;;4.60;;
15677;SDS011;7939;50.814;6.368;2023-12-20T09:18:57;10.05;;;4.10;;
15677;SDS011;7939;50.814;6.368;2023-12-20T09:21:24;8.63;;;5.15;;
15677;SDS011;7939;50.814;6.368;2023-12-20T09:23:51;10.55;;;3.67;;
15677;SDS011;7939;50.814;6.368;2023-12-20T09:26:18;12.75;;;4.20;;
15677;SDS011;7939;50.814;6.368;2023-12-20T09:28:44;14.05;;;4.95;;
15677;SDS011;7939;50.814;6.368;2023-12-20T09:31:12;11.00;;;4.40;;
15677;SDS011;7939;50.814;6.368;2023-12-20T09:33:39;11.35;;;4.38;;
15677;SDS011;7939;50.814;6.368;2023-12-20T09:36:06;8.25;;;4.22;;
15677;SDS011;7939;50.814;6.368;2023-12-20T09:38:33;9.07;;;3.88;;
15677;SDS011;7939;50.814;6.368;2023-12-20T09:41:00;9.27;;;4.20;;
15677;SDS011;7939;50.814;6.368;2023-12-20T09:43:29;9.50;;;3.60;;
15677;SDS011;7939;50.814;6.368;2023-12-20T09:45:58;11.95;;;4.53;;
15677;SDS011;7939;50.814;6.368;2023-12-20T09:48:28;11.45;;;4.13;;
15677;SDS011;7939;50.814;6.368;2023-12-20T09:50:56;8.75;;;3.97;;
15677;SDS011;7939;50.814;6.368;2023-12-20T09:53:23;11.15;;;4.50;;
15677;SDS011;7939;50.814;6.368;2023-12-20T09:55:55;12.30;;;4.18;;
15677;SDS011;7939;50.814;6.368;2023-12-20T09:58:24;8.45;;;3.78;;
15677;SDS011;7939;50.814;6.368;2023-12-20T10:00:51;9.00;;;4.35;;
15677;SDS011;7939;50.814;6.368;2023-12-20T10:03:19;14.75;;;3.55;;
15677;SDS011;7939;50.814;6.368;2023-12-20T10:05:53;10.70;;;3.85;;
15677;SDS011;7939;50.814;6.368;2023-12-20T10:08:22;11.40;;;3.67;;
15677;SDS011;7939;50.814;6.368;2023-12-20T10:10:50;12.63;;;3.67;;
15677;SDS011;7939;50.814;6.368;2023-12-20T10:13:18;12.13;;;4.68;;
15677;SDS011;7939;50.814;6.368;2023-12-20T10:15:44;14.48;;;4.57;;
15677;SDS011;7939;50.814;6.368;2023-12-20T10:18:12;9.27;;;4.03;;
15677;SDS011;7939;50.814;6.368;2023-12-20T10:20:40;6.40;;;3.33;;
15677;SDS011;7939;50.814;6.368;2023-12-20T10:23:08;7.13;;;3.58;;
15677;SDS011;7939;50.814;6.368;2023-12-20T10:25:35;8.85;;;3.47;;
15677;SDS011;7939;50.814;6.368;2023-12-20T10:28:09;10.90;;;3.55;;
15677;SDS011;7939;50.814;6.368;2023-12-20T10:30:37;9.77;;;4.45;;
15677;SDS011;7939;50.814;6.368;2023-12-20T10:33:05;8.90;;;3.20;;
15677;SDS011;7939;50.814;6.368;2023-12-20T10:35:32;11.60;;;3.67;;
15677;SDS011;7939;50.814;6.368;2023-12-20T10:37:59;8.48;;;3.10;;
15677;SDS011;7939;50.814;6.368;2023-12-20T10:40:32;8.95;;;2.92;;
15677;SDS011;7939;50.814;6.368;2023-12-20T10:43:02;11.68;;;4.07;;
15677;SDS011;7939;50.814;6.368;2023-12-20T10:45:29;11.15;;;3.90;;
15677;SDS011;7939;50.814;6.368;2023-12-20T10:47:56;7.22;;;3.75;;
15677;SDS011;7939;50.814;6.368;2023-12-20T10:50:26;9.43;;;3.38;;
15677;SDS011;7939;50.814;6.368;2023-12-20T10:52:55;11.88;;;4.72;;
15677;SDS011;7939;50.814;6.368;2023-12-20T10:55:22;10.60;;;3.75;;
15677;SDS011;7939;50.814;6.368;2023-12-20T10:57:50;8.70;;;3.95;;
15677;SDS011;7939;50.814;6.368;2023-12-20T11:00:18;11.13;;;3.60;;
15677;SDS011;7939;50.814;6.368;2023-12-20T11:02:48;10.85;;;3.65;;
15677;SDS011;7939;50.814;6.368;2023-12-20T11:05:19;9.13;;;3.35;;
15677;SDS011;7939;50.814;6.368;2023-12-20T11:07:55;7.50;;;3.50;;
15677;SDS011;7939;50.814;6.368;2023-12-20T11:10:31;8.23;;;3.63;;
15677;SDS011;7939;50.814;6.368;2023-12-20T11:13:06;12.13;;;4.00;;
15677;SDS011;7939;50.814;6.368;2023-12-20T11:15:36;7.43;;;3.15;;
15677;SDS011;7939;50.814;6.368;2023-12-20T11:18:03;9.68;;;3.83;;
15677;SDS011;7939;50.814;6.368;2023-12-20T11:20:35;10.05;;;4.25;;
15677;SDS011;7939;50.814;6.368;2023-12-20T11:23:03;11.88;;;4.40;;
15677;SDS011;7939;50.814;6.368;2023-12-20T11:25:34;7.53;;;3.75;;
15677;SDS011;7939;50.814;6.368;2023-12-20T11:28:14;11.40;;;4.20;;
15677;SDS011;7939;50.814;6.368;2023-12-20T11:30:46;7.82;;;3.60;;
15677;SDS011;7939;50.814;6.368;2023-12-20T11:33:14;10.68;;;4.40;;
15677;SDS011;7939;50.814;6.368;2023-12-20T11:35:41;7.13;;;3.63;;
15677;SDS011;7939;50.814;6.368;2023-12-20T11:38:08;10.15;;;4.00;;
15677;SDS011;7939;50.814;6.368;2023-12-20T11:40:36;11.68;;;3.97;;
15677;SDS011;7939;50.814;6.368;2023-12-20T11:43:03;12.10;;;4.15;;
15677;SDS011;7939;50.814;6.368;2023-12-20T11:45:31;12.23;;;3.90;;
15677;SDS011;7939;50.814;6.368;2023-12-20T11:48:00;11.80;;;3.67;;
15677;SDS011;7939;50.814;6.368;2023-12-20T11:50:28;8.02;;;3.80;;
15677;SDS011;7939;50.814;6.368;2023-12-20T11:52:56;8.48;;;3.92;;
15677;SDS011;7939;50.814;6.368;2023-12-20T11:55:24;10.00;;;3.70;;
15677;SDS011;7939;50.814;6.368;2023-12-20T11:57:51;8.52;;;3.63;;
15677;SDS011;7939;50.814;6.368;2023-12-20T12:00:18;9.35;;;4.03;;
15677;SDS011;7939;50.814;6.368;2023-12-20T12:02:56;10.60;;;4.50;;
15677;SDS011;7939;50.814;6.368;2023-12-20T12:05:23;6.68;;;3.80;;
15677;SDS011;7939;50.814;6.368;2023-12-20T12:07:51;10.25;;;3.88;;
15677;SDS011;7939;50.814;6.368;2023-12-20T12:10:17;10.20;;;4.47;;
15677;SDS011;7939;50.814;6.368;2023-12-20T12:12:44;9.15;;;4.22;;
15677;SDS011;7939;50.814;6.368;2023-12-20T12:15:11;10.73;;;4.25;;
15677;SDS011;7939;50.814;6.368;2023-12-20T12:17:38;12.65;;;4.93;;
15677;SDS011;7939;50.814;6.368;2023-12-20T12:20:07;5.25;;;3.22;;
15677;SDS011;7939;50.814;6.368;2023-12-20T12:22:35;10.48;;;3.70;;
15677;SDS011;7939;50.814;6.368;2023-12-20T12:25:09;9.23;;;3.63;;
15677;SDS011;7939;50.814;6.368;2023-12-20T12:27:36;9.23;;;3.35;;
15677;SDS011;7939;50.814;6.368;2023-12-20T12:30:04;8.57;;;3.53;;
15677;SDS011;7939;50.814;6.368;2023-12-20T12:32:33;10.50;;;3.97;;
15677;SDS011;7939;50.814;6.368;2023-12-20T12:35:00;8.75;;;3.88;;
15677;SDS011;7939;50.814;6.368;2023-12-20T12:37:30;11.35;;;3.60;;
15677;SDS011;7939;50.814;6.368;2023-12-20T12:39:57;8.82;;;3.70;;
15677;SDS011;7939;50.814;6.368;2023-12-20T12:42:23;6.20;;;4.18;;
15677;SDS011;7939;50.814;6.368;2023-12-20T12:44:53;7.20;;;3.75;;
15677;SDS011;7939;50.814;6.368;2023-12-20T12:47:20;9.48;;;4.15;;
15677;SDS011;7939;50.814;6.368;2023-12-20T12:49:47;10.23;;;4.72;;
15677;SDS011;7939;50.814;6.368;2023-12-20T12:52:15;14.40;;;5.25;;
15677;SDS011;7939;50.814;6.368;2023-12-20T12:54:43;12.38;;;3.97;;
15677;SDS011;7939;50.814;6.368;2023-12-20T12:57:13;7.55;;;4.05;;
15677;SDS011;7939;50.814;6.368;2023-12-20T12:59:40;10.43;;;3.60;;
15677;SDS011;7939;50.814;6.368;2023-12-20T13:02:07;10.18;;;3.42;;
15677;SDS011;7939;50.814;6.368;2023-12-20T13:04:34;8.05;;;4.18;;
15677;SDS011;7939;50.814;6.368;2023-12-20T13:07:01;9.20;;;3.92;;
15677;SDS011;7939;50.814;6.368;2023-12-20T13:09:27;11.73;;;4.05;;
15677;SDS011;7939;50.814;6.368;2023-12-20T13:11:55;7.13;;;3.53;;
15677;SDS011;7939;50.814;6.368;2023-12-20T13:14:22;9.95;;;3.90;;
15677;SDS011;7939;50.814;6.368;2023-12-20T13:16:49;10.18;;;3.35;;
15677;SDS011;7939;50.814;6.368;2023-12-20T13:19:15;13.05;;;3.50;;
15677;SDS011;7939;50.814;6.368;2023-12-20T13:21:42;8.88;;;3.85;;
15677;SDS011;7939;50.814;6.368;2023-12-20T13:24:09;8.85;;;3.92;;
15677;SDS011;7939;50.814;6.368;2023-12-20T13:26:35;7.85;;;3.25;;
15677;SDS011;7939;50.814;6.368;2023-12-20T13:29:03;10.68;;;4.18;;
15677;SDS011;7939;50.814;6.368;2023-12-20T13:31:30;10.85;;;3.65;;
15677;SDS011;7939;50.814;6.368;2023-12-20T13:33:57;11.00;;;4.75;;
15677;SDS011;7939;50.814;6.368;2023-12-20T13:36:25;7.05;;;3.80;;
15677;SDS011;7939;50.814;6.368;2023-12-20T13:38:52;10.38;;;4.43;;
15677;SDS011;7939;50.814;6.368;2023-12-20T13:41:19;9.07;;;3.53;;
15677;SDS011;7939;50.814;6.368;2023-12-20T13:43:46;6.30;;;3.70;;
15677;SDS011;7939;50.814;6.368;2023-12-20T13:46:14;4.72;;;3.20;;
15677;SDS011;7939;50.814;6.368;2023-12-20T13:48:41;9.68;;;3.67;;
15677;SDS011;7939;50.814;6.368;2023-12-20T13:51:07;10.93;;;3.65;;
15677;SDS011;7939;50.814;6.368;2023-12-20T13:53:34;6.68;;;3.45;;
15677;SDS011;7939;50.814;6.368;2023-12-20T13:56:01;4.95;;;3.50;;
15677;SDS011;7939;50.814;6.368;2023-12-20T13:58:27;8.18;;;3.92;;
15677;SDS011;7939;50.814;6.368;2023-12-20T14:00:54;6.65;;;3.50;;
15677;SDS011;7939;50.814;6.368;2023-12-20T14:03:22;6.50;;;3.65;;
15677;SDS011;7939;50.814;6.368;2023-12-20T14:05:49;5.75;;;3.15;;
15677;SDS011;7939;50.814;6.368;2023-12-20T14:08:15;8.73;;;3.35;;
15677;SDS011;7939;50.814;6.368;2023-12-20T14:10:42;7.50;;;3.58;;
15677;SDS011;7939;50.814;6.368;2023-12-20T14:13:09;10.30;;;3.58;;
15677;SDS011;7939;50.814;6.368;2023-12-20T14:15:36;9.25;;;4.00;;
15677;SDS011;7939;50.814;6.368;2023-12-20T14:18:03;6.82;;;3.65;;
15677;SDS011;7939;50.814;6.368;2023-12-20T14:20:33;7.38;;;3.60;;
15677;SDS011;7939;50.814;6.368;2023-12-20T14:23:00;6.50;;;3.60;;
15677;SDS011;7939;50.814;6.368;2023-12-20T14:25:27;9.55;;;4.10;;
15677;SDS011;7939;50.814;6.368;2023-12-20T14:27:53;11.70;;;3.97;;
15677;SDS011;7939;50.814;6.368;2023-12-20T14:30:20;9.77;;;3.17;;
15677;SDS011;7939;50.814;6.368;2023-12-20T14:32:47;11.30;;;3.63;;
15677;SDS011;7939;50.814;6.368;2023-12-20T14:35:14;12.68;;;4.10;;
15677;SDS011;7939;50.814;6.368;2023-12-20T14:37:42;9.75;;;4.03;;
15677;SDS011;7939;50.814;6.368;2023-12-20T14:40:10;11.05;;;3.97;;
15677;SDS011;7939;50.814;6.368;2023-12-20T14:42:40;8.50;;;4.10;;
15677;SDS011;7939;50.814;6.368;2023-12-20T14:45:07;9.10;;;3.75;;
15677;SDS011;7939;50.814;6.368;2023-12-20T14:47:34;10.80;;;3.80;;
15677;SDS011;7939;50.814;6.368;2023-12-20T14:50:02;8.88;;;4.00;;
15677;SDS011;7939;50.814;6.368;2023-12-20T14:52:29;10.55;;;4.30;;
15677;SDS011;7939;50.814;6.368;2023-12-20T14:54:57;8.27;;;3.85;;
15677;SDS011;7939;50.814;6.368;2023-12-20T14:57:23;5.50;;;3.60;;